Terminal Aerodrome Forecast
Issued by NWS

Home | Current Version | Previous Version | Text Only | Print | Product List | Glossary On
Versions: 1 2 3 4 5 6 7 8 9 10 11 12 13 14 15 16 17 18 19 20
258
FTUS41 KCAR 081120
TAFHUL
TAF
KHUL 081120Z 0812/0912 00000KT P6SM SKC
     FM081800 04011KT P6SM BKN140
     FM090200 01012KT 2SM -SN BR OVC015
     FM090600 36012KT 3/4SM -SN BR OVC008=

USA.gov is the U.S. government's official web portal to all federal, state and local government web resources and services.